sensor_id;sensor_type;location;lat;lon;timestamp;P1;durP1;ratioP1;P2;durP2;ratioP2
7410;SDS011;3747;48.628;9.058;2024-01-15T00:00:14;17.07;;;8.63;;
7410;SDS011;3747;48.628;9.058;2024-01-15T00:02:43;17.13;;;9.27;;
7410;SDS011;3747;48.628;9.058;2024-01-15T00:05:09;20.73;;;10.20;;
7410;SDS011;3747;48.628;9.058;2024-01-15T00:07:35;15.57;;;7.57;;
7410;SDS011;3747;48.628;9.058;2024-01-15T00:10:02;13.33;;;8.20;;
7410;SDS011;3747;48.628;9.058;2024-01-15T00:12:29;15.53;;;6.80;;
7410;SDS011;3747;48.628;9.058;2024-01-15T00:14:55;18.30;;;9.23;;
7410;SDS011;3747;48.628;9.058;2024-01-15T00:17:22;18.63;;;8.40;;
7410;SDS011;3747;48.628;9.058;2024-01-15T00:19:50;15.57;;;8.30;;
7410;SDS011;3747;48.628;9.058;2024-01-15T00:22:17;20.53;;;9.90;;
7410;SDS011;3747;48.628;9.058;2024-01-15T00:24:44;12.03;;;7.37;;
7410;SDS011;3747;48.628;9.058;2024-01-15T00:27:11;20.97;;;9.93;;
7410;SDS011;3747;48.628;9.058;2024-01-15T00:29:37;18.10;;;9.03;;
7410;SDS011;3747;48.628;9.058;2024-01-15T00:32:05;17.50;;;8.27;;
7410;SDS011;3747;48.628;9.058;2024-01-15T00:34:31;18.90;;;8.83;;
7410;SDS011;3747;48.628;9.058;2024-01-15T00:36:59;14.50;;;7.30;;
7410;SDS011;3747;48.628;9.058;2024-01-15T00:39:26;11.10;;;6.80;;
7410;SDS011;3747;48.628;9.058;2024-01-15T00:41:53;15.00;;;7.70;;
7410;SDS011;3747;48.628;9.058;2024-01-15T00:44:19;15.10;;;7.60;;
7410;SDS011;3747;48.628;9.058;2024-01-15T00:46:46;16.03;;;7.93;;
7410;SDS011;3747;48.628;9.058;2024-01-15T00:49:13;18.37;;;8.47;;
7410;SDS011;3747;48.628;9.058;2024-01-15T00:51:40;15.00;;;7.70;;
7410;SDS011;3747;48.628;9.058;2024-01-15T00:54:08;14.57;;;6.90;;
7410;SDS011;3747;48.628;9.058;2024-01-15T00:56:41;20.33;;;8.63;;
7410;SDS011;3747;48.628;9.058;2024-01-15T00:59:08;20.67;;;9.53;;
7410;SDS011;3747;48.628;9.058;2024-01-15T01:01:35;16.20;;;8.67;;
7410;SDS011;3747;48.628;9.058;2024-01-15T01:04:03;17.07;;;8.07;;
7410;SDS011;3747;48.628;9.058;2024-01-15T01:06:29;16.90;;;7.20;;
7410;SDS011;3747;48.628;9.058;2024-01-15T01:08:56;18.30;;;8.40;;
7410;SDS011;3747;48.628;9.058;2024-01-15T01:11:24;17.73;;;8.57;;
7410;SDS011;3747;48.628;9.058;2024-01-15T01:13:51;16.70;;;8.20;;
7410;SDS011;3747;48.628;9.058;2024-01-15T01:16:17;18.67;;;8.83;;
7410;SDS011;3747;48.628;9.058;2024-01-15T01:18:44;15.67;;;7.90;;
7410;SDS011;3747;48.628;9.058;2024-01-15T01:21:11;20.07;;;7.70;;
7410;SDS011;3747;48.628;9.058;2024-01-15T01:23:37;15.80;;;7.33;;
7410;SDS011;3747;48.628;9.058;2024-01-15T01:26:04;21.20;;;8.93;;
7410;SDS011;3747;48.628;9.058;2024-01-15T01:28:32;15.13;;;7.77;;
7410;SDS011;3747;48.628;9.058;2024-01-15T01:30:59;16.30;;;7.60;;
7410;SDS011;3747;48.628;9.058;2024-01-15T01:33:26;16.17;;;7.07;;
7410;SDS011;3747;48.628;9.058;2024-01-15T01:35:52;11.90;;;7.00;;
7410;SDS011;3747;48.628;9.058;2024-01-15T01:38:19;17.77;;;7.23;;
7410;SDS011;3747;48.628;9.058;2024-01-15T01:40:46;14.03;;;7.47;;
7410;SDS011;3747;48.628;9.058;2024-01-15T01:43:12;12.80;;;7.77;;
7410;SDS011;3747;48.628;9.058;2024-01-15T01:45:40;13.30;;;7.53;;
7410;SDS011;3747;48.628;9.058;2024-01-15T01:48:07;12.63;;;6.80;;
7410;SDS011;3747;48.628;9.058;2024-01-15T01:50:34;16.43;;;7.60;;
7410;SDS011;3747;48.628;9.058;2024-01-15T01:53:01;15.37;;;6.50;;
7410;SDS011;3747;48.628;9.058;2024-01-15T01:55:29;17.97;;;7.10;;
7410;SDS011;3747;48.628;9.058;2024-01-15T01:57:58;13.23;;;6.70;;
7410;SDS011;3747;48.628;9.058;2024-01-15T02:00:25;12.97;;;7.20;;
7410;SDS011;3747;48.628;9.058;2024-01-15T02:02:53;14.83;;;7.27;;
7410;SDS011;3747;48.628;9.058;2024-01-15T02:05:20;13.07;;;6.60;;
7410;SDS011;3747;48.628;9.058;2024-01-15T02:07:48;14.40;;;7.47;;
7410;SDS011;3747;48.628;9.058;2024-01-15T02:10:15;18.60;;;8.13;;
7410;SDS011;3747;48.628;9.058;2024-01-15T02:12:42;16.07;;;7.10;;
7410;SDS011;3747;48.628;9.058;2024-01-15T02:15:09;16.40;;;7.63;;
7410;SDS011;3747;48.628;9.058;2024-01-15T02:17:49;11.93;;;6.83;;
7410;SDS011;3747;48.628;9.058;2024-01-15T02:20:24;12.70;;;6.63;;
7410;SDS011;3747;48.628;9.058;2024-01-15T02:22:51;12.23;;;7.30;;
7410;SDS011;3747;48.628;9.058;2024-01-15T02:25:19;16.80;;;7.67;;
7410;SDS011;3747;48.628;9.058;2024-01-15T02:27:46;13.77;;;7.10;;
7410;SDS011;3747;48.628;9.058;2024-01-15T02:30:13;18.33;;;8.30;;
7410;SDS011;3747;48.628;9.058;2024-01-15T02:32:41;16.80;;;7.27;;
7410;SDS011;3747;48.628;9.058;2024-01-15T02:35:08;14.10;;;7.37;;
7410;SDS011;3747;48.628;9.058;2024-01-15T02:37:35;17.20;;;8.00;;
7410;SDS011;3747;48.628;9.058;2024-01-15T02:40:02;15.60;;;7.80;;
7410;SDS011;3747;48.628;9.058;2024-01-15T02:42:30;15.97;;;8.40;;
7410;SDS011;3747;48.628;9.058;2024-01-15T02:44:57;15.90;;;7.83;;
7410;SDS011;3747;48.628;9.058;2024-01-15T02:47:24;14.37;;;7.17;;
7410;SDS011;3747;48.628;9.058;2024-01-15T02:49:50;18.27;;;7.67;;
7410;SDS011;3747;48.628;9.058;2024-01-15T02:52:17;15.43;;;8.07;;
7410;SDS011;3747;48.628;9.058;2024-01-15T02:54:44;16.10;;;8.20;;
7410;SDS011;3747;48.628;9.058;2024-01-15T02:57:11;23.57;;;11.00;;
7410;SDS011;3747;48.628;9.058;2024-01-15T02:59:38;17.63;;;7.63;;
7410;SDS011;3747;48.628;9.058;2024-01-15T03:02:05;16.13;;;7.53;;
7410;SDS011;3747;48.628;9.058;2024-01-15T03:04:32;16.17;;;8.60;;
7410;SDS011;3747;48.628;9.058;2024-01-15T03:09:33;16.70;;;8.47;;
7410;SDS011;3747;48.628;9.058;2024-01-15T03:12:00;15.20;;;7.57;;
7410;SDS011;3747;48.628;9.058;2024-01-15T03:14:26;20.87;;;8.47;;
7410;SDS011;3747;48.628;9.058;2024-01-15T03:16:55;17.77;;;8.10;;
7410;SDS011;3747;48.628;9.058;2024-01-15T03:19:21;17.83;;;9.23;;
7410;SDS011;3747;48.628;9.058;2024-01-15T03:21:48;20.03;;;9.17;;
7410;SDS011;3747;48.628;9.058;2024-01-15T03:24:15;22.90;;;10.27;;
7410;SDS011;3747;48.628;9.058;2024-01-15T03:26:41;13.00;;;6.60;;
7410;SDS011;3747;48.628;9.058;2024-01-15T03:29:08;16.53;;;8.33;;
7410;SDS011;3747;48.628;9.058;2024-01-15T03:31:35;22.03;;;9.57;;
7410;SDS011;3747;48.628;9.058;2024-01-15T03:34:03;26.37;;;12.30;;
7410;SDS011;3747;48.628;9.058;2024-01-15T03:36:29;23.70;;;11.97;;
7410;SDS011;3747;48.628;9.058;2024-01-15T03:38:56;18.23;;;8.33;;
7410;SDS011;3747;48.628;9.058;2024-01-15T03:41:23;15.90;;;7.90;;
7410;SDS011;3747;48.628;9.058;2024-01-15T03:43:49;16.03;;;8.00;;
7410;SDS011;3747;48.628;9.058;2024-01-15T03:46:16;15.23;;;7.07;;
7410;SDS011;3747;48.628;9.058;2024-01-15T03:48:43;11.43;;;6.07;;
7410;SDS011;3747;48.628;9.058;2024-01-15T03:51:11;17.33;;;7.43;;
7410;SDS011;3747;48.628;9.058;2024-01-15T03:53:37;17.50;;;8.27;;
7410;SDS011;3747;48.628;9.058;2024-01-15T03:56:04;13.10;;;6.97;;
7410;SDS011;3747;48.628;9.058;2024-01-15T03:58:31;16.63;;;8.00;;
7410;SDS011;3747;48.628;9.058;2024-01-15T04:00:58;16.73;;;9.07;;
7410;SDS011;3747;48.628;9.058;2024-01-15T04:03:24;16.43;;;8.33;;
7410;SDS011;3747;48.628;9.058;2024-01-15T04:05:51;14.70;;;7.53;;
7410;SDS011;3747;48.628;9.058;2024-01-15T04:08:19;17.43;;;8.17;;
7410;SDS011;3747;48.628;9.058;2024-01-15T04:10:46;17.80;;;9.37;;
7410;SDS011;3747;48.628;9.058;2024-01-15T04:13:12;18.23;;;8.77;;
7410;SDS011;3747;48.628;9.058;2024-01-15T04:15:39;18.80;;;7.93;;
7410;SDS011;3747;48.628;9.058;2024-01-15T04:18:06;22.30;;;8.80;;
7410;SDS011;3747;48.628;9.058;2024-01-15T04:20:32;18.17;;;7.20;;
7410;SDS011;3747;48.628;9.058;2024-01-15T04:22:59;17.47;;;8.63;;
7410;SDS011;3747;48.628;9.058;2024-01-15T04:25:27;20.43;;;9.47;;
7410;SDS011;3747;48.628;9.058;2024-01-15T04:27:53;14.53;;;8.47;;
7410;SDS011;3747;48.628;9.058;2024-01-15T04:30:20;16.97;;;8.27;;
7410;SDS011;3747;48.628;9.058;2024-01-15T04:32:47;14.73;;;7.40;;
7410;SDS011;3747;48.628;9.058;2024-01-15T04:35:13;20.73;;;8.47;;
7410;SDS011;3747;48.628;9.058;2024-01-15T04:37:40;15.20;;;8.60;;
7410;SDS011;3747;48.628;9.058;2024-01-15T04:40:07;23.63;;;10.53;;
7410;SDS011;3747;48.628;9.058;2024-01-15T04:42:36;19.03;;;8.83;;
7410;SDS011;3747;48.628;9.058;2024-01-15T04:45:03;19.63;;;7.90;;
7410;SDS011;3747;48.628;9.058;2024-01-15T04:47:30;14.73;;;8.47;;
7410;SDS011;3747;48.628;9.058;2024-01-15T04:49:57;18.50;;;8.30;;
7410;SDS011;3747;48.628;9.058;2024-01-15T04:52:23;18.63;;;9.13;;
7410;SDS011;3747;48.628;9.058;2024-01-15T04:54:50;18.80;;;9.20;;
7410;SDS011;3747;48.628;9.058;2024-01-15T04:57:17;19.17;;;9.40;;
7410;SDS011;3747;48.628;9.058;2024-01-15T04:59:45;20.97;;;10.00;;
7410;SDS011;3747;48.628;9.058;2024-01-15T05:02:11;21.80;;;10.13;;
7410;SDS011;3747;48.628;9.058;2024-01-15T05:04:38;16.23;;;7.73;;
7410;SDS011;3747;48.628;9.058;2024-01-15T05:07:05;18.10;;;9.97;;
7410;SDS011;3747;48.628;9.058;2024-01-15T05:09:31;20.03;;;8.90;;
7410;SDS011;3747;48.628;9.058;2024-01-15T05:11:58;19.17;;;9.40;;
7410;SDS011;3747;48.628;9.058;2024-01-15T05:14:25;19.23;;;9.53;;
7410;SDS011;3747;48.628;9.058;2024-01-15T05:16:53;17.97;;;9.77;;
7410;SDS011;3747;48.628;9.058;2024-01-15T05:19:19;18.83;;;9.50;;
7410;SDS011;3747;48.628;9.058;2024-01-15T05:21:46;24.43;;;9.10;;
7410;SDS011;3747;48.628;9.058;2024-01-15T05:24:13;19.07;;;9.00;;
7410;SDS011;3747;48.628;9.058;2024-01-15T05:26:39;15.17;;;8.60;;
7410;SDS011;3747;48.628;9.058;2024-01-15T05:29:06;17.43;;;9.07;;
7410;SDS011;3747;48.628;9.058;2024-01-15T05:31:33;22.90;;;9.57;;
7410;SDS011;3747;48.628;9.058;2024-01-15T05:34:01;16.87;;;8.77;;
7410;SDS011;3747;48.628;9.058;2024-01-15T05:36:27;18.47;;;9.77;;
7410;SDS011;3747;48.628;9.058;2024-01-15T05:38:54;18.47;;;8.83;;
7410;SDS011;3747;48.628;9.058;2024-01-15T05:41:21;19.80;;;10.93;;
7410;SDS011;3747;48.628;9.058;2024-01-15T05:43:47;15.07;;;8.03;;
7410;SDS011;3747;48.628;9.058;2024-01-15T05:46:14;18.77;;;9.47;;
7410;SDS011;3747;48.628;9.058;2024-01-15T05:48:41;16.73;;;8.30;;
7410;SDS011;3747;48.628;9.058;2024-01-15T05:51:09;14.67;;;8.70;;
7410;SDS011;3747;48.628;9.058;2024-01-15T05:53:36;16.00;;;9.07;;
7410;SDS011;3747;48.628;9.058;2024-01-15T05:56:05;17.83;;;9.50;;
7410;SDS011;3747;48.628;9.058;2024-01-15T05:58:32;15.73;;;8.07;;
7410;SDS011;3747;48.628;9.058;2024-01-15T06:00:58;23.37;;;10.33;;
7410;SDS011;3747;48.628;9.058;2024-01-15T06:03:25;18.97;;;9.83;;
7410;SDS011;3747;48.628;9.058;2024-01-15T06:05:52;21.83;;;11.03;;
7410;SDS011;3747;48.628;9.058;2024-01-15T06:08:20;18.60;;;8.17;;
7410;SDS011;3747;48.628;9.058;2024-01-15T06:10:46;19.80;;;9.37;;
7410;SDS011;3747;48.628;9.058;2024-01-15T06:13:13;17.80;;;9.00;;
7410;SDS011;3747;48.628;9.058;2024-01-15T06:15:40;18.70;;;8.43;;
7410;SDS011;3747;48.628;9.058;2024-01-15T06:18:06;19.90;;;10.03;;
7410;SDS011;3747;48.628;9.058;2024-01-15T06:20:33;13.67;;;7.40;;
7410;SDS011;3747;48.628;9.058;2024-01-15T06:23:00;20.00;;;9.00;;
7410;SDS011;3747;48.628;9.058;2024-01-15T06:25:28;16.63;;;8.93;;
7410;SDS011;3747;48.628;9.058;2024-01-15T06:27:54;18.53;;;8.83;;
7410;SDS011;3747;48.628;9.058;2024-01-15T06:30:21;17.77;;;8.93;;
7410;SDS011;3747;48.628;9.058;2024-01-15T06:32:50;20.87;;;9.33;;
7410;SDS011;3747;48.628;9.058;2024-01-15T06:35:16;16.53;;;8.10;;
7410;SDS011;3747;48.628;9.058;2024-01-15T06:37:43;11.37;;;7.23;;
7410;SDS011;3747;48.628;9.058;2024-01-15T06:40:10;15.47;;;7.47;;
7410;SDS011;3747;48.628;9.058;2024-01-15T06:42:38;15.90;;;8.07;;
7410;SDS011;3747;48.628;9.058;2024-01-15T06:45:05;17.23;;;8.60;;
7410;SDS011;3747;48.628;9.058;2024-01-15T06:47:33;14.80;;;8.43;;
7410;SDS011;3747;48.628;9.058;2024-01-15T06:49:59;15.23;;;8.87;;
7410;SDS011;3747;48.628;9.058;2024-01-15T06:52:26;16.23;;;8.63;;
7410;SDS011;3747;48.628;9.058;2024-01-15T06:54:52;16.13;;;8.77;;
7410;SDS011;3747;48.628;9.058;2024-01-15T06:57:19;14.97;;;7.50;;
7410;SDS011;3747;48.628;9.058;2024-01-15T06:59:47;17.37;;;8.70;;
7410;SDS011;3747;48.628;9.058;2024-01-15T07:02:14;15.50;;;8.30;;
7410;SDS011;3747;48.628;9.058;2024-01-15T07:04:40;16.37;;;8.37;;
7410;SDS011;3747;48.628;9.058;2024-01-15T07:07:07;15.40;;;8.50;;
7410;SDS011;3747;48.628;9.058;2024-01-15T07:09:34;12.80;;;7.77;;
7410;SDS011;3747;48.628;9.058;2024-01-15T07:12:01;14.50;;;8.13;;
7410;SDS011;3747;48.628;9.058;2024-01-15T07:14:27;16.13;;;8.10;;
7410;SDS011;3747;48.628;9.058;2024-01-15T07:16:55;17.30;;;7.90;;
7410;SDS011;3747;48.628;9.058;2024-01-15T07:19:22;14.57;;;7.50;;
7410;SDS011;3747;48.628;9.058;2024-01-15T07:21:49;15.63;;;8.13;;
7410;SDS011;3747;48.628;9.058;2024-01-15T07:24:15;14.43;;;7.43;;
7410;SDS011;3747;48.628;9.058;2024-01-15T07:26:42;13.83;;;7.83;;
7410;SDS011;3747;48.628;9.058;2024-01-15T07:29:09;13.93;;;7.27;;
7410;SDS011;3747;48.628;9.058;2024-01-15T07:31:36;11.43;;;6.57;;
7410;SDS011;3747;48.628;9.058;2024-01-15T07:34:04;15.40;;;7.17;;
7410;SDS011;3747;48.628;9.058;2024-01-15T07:36:30;15.17;;;7.67;;
7410;SDS011;3747;48.628;9.058;2024-01-15T07:38:57;13.50;;;7.03;;
7410;SDS011;3747;48.628;9.058;2024-01-15T07:41:24;12.67;;;6.37;;
7410;SDS011;3747;48.628;9.058;2024-01-15T07:43:50;8.87;;;5.43;;
7410;SDS011;3747;48.628;9.058;2024-01-15T07:46:17;15.63;;;6.13;;
7410;SDS011;3747;48.628;9.058;2024-01-15T07:48:44;13.60;;;7.10;;
7410;SDS011;3747;48.628;9.058;2024-01-15T07:51:12;13.83;;;6.57;;
7410;SDS011;3747;48.628;9.058;2024-01-15T07:53:38;12.47;;;6.77;;
7410;SDS011;3747;48.628;9.058;2024-01-15T07:56:05;11.93;;;6.53;;
7410;SDS011;3747;48.628;9.058;2024-01-15T07:58:32;10.27;;;5.40;;
7410;SDS011;3747;48.628;9.058;2024-01-15T08:00:59;12.30;;;5.87;;
7410;SDS011;3747;48.628;9.058;2024-01-15T08:03:31;9.27;;;5.93;;
7410;SDS011;3747;48.628;9.058;2024-01-15T08:05:58;10.40;;;6.23;;
7410;SDS011;3747;48.628;9.058;2024-01-15T08:08:26;11.57;;;6.53;;
7410;SDS011;3747;48.628;9.058;2024-01-15T08:10:53;10.77;;;6.07;;
7410;SDS011;3747;48.628;9.058;2024-01-15T08:13:19;9.80;;;5.87;;
7410;SDS011;3747;48.628;9.058;2024-01-15T08:15:46;26.23;;;8.57;;
7410;SDS011;3747;48.628;9.058;2024-01-15T08:18:13;9.90;;;6.10;;
7410;SDS011;3747;48.628;9.058;2024-01-15T08:20:39;10.10;;;5.87;;
7410;SDS011;3747;48.628;9.058;2024-01-15T08:23:06;12.23;;;6.67;;
7410;SDS011;3747;48.628;9.058;2024-01-15T08:25:35;10.30;;;5.87;;
7410;SDS011;3747;48.628;9.058;2024-01-15T08:28:01;13.00;;;5.97;;
7410;SDS011;3747;48.628;9.058;2024-01-15T08:30:28;11.20;;;5.70;;
7410;SDS011;3747;48.628;9.058;2024-01-15T08:32:55;13.03;;;5.93;;
7410;SDS011;3747;48.628;9.058;2024-01-15T08:35:22;7.67;;;4.87;;
7410;SDS011;3747;48.628;9.058;2024-01-15T08:37:50;12.23;;;6.30;;
7410;SDS011;3747;48.628;9.058;2024-01-15T08:40:17;12.20;;;6.23;;
7410;SDS011;3747;48.628;9.058;2024-01-15T08:42:45;9.70;;;5.60;;
7410;SDS011;3747;48.628;9.058;2024-01-15T08:45:12;8.53;;;5.00;;
7410;SDS011;3747;48.628;9.058;2024-01-15T08:47:38;9.07;;;4.70;;
7410;SDS011;3747;48.628;9.058;2024-01-15T08:50:06;7.73;;;4.47;;
7410;SDS011;3747;48.628;9.058;2024-01-15T08:52:35;9.90;;;4.67;;
7410;SDS011;3747;48.628;9.058;2024-01-15T08:55:02;7.43;;;4.57;;
7410;SDS011;3747;48.628;9.058;2024-01-15T08:57:42;10.50;;;5.57;;
7410;SDS011;3747;48.628;9.058;2024-01-15T09:00:11;8.20;;;4.33;;
7410;SDS011;3747;48.628;9.058;2024-01-15T09:02:39;8.00;;;3.97;;
7410;SDS011;3747;48.628;9.058;2024-01-15T09:05:07;8.47;;;4.23;;
7410;SDS011;3747;48.628;9.058;2024-01-15T09:07:34;8.23;;;4.63;;
7410;SDS011;3747;48.628;9.058;2024-01-15T09:10:01;6.73;;;3.80;;
7410;SDS011;3747;48.628;9.058;2024-01-15T09:12:29;6.53;;;4.10;;
7410;SDS011;3747;48.628;9.058;2024-01-15T09:14:55;4.73;;;3.30;;
7410;SDS011;3747;48.628;9.058;2024-01-15T09:17:31;8.13;;;4.13;;
7410;SDS011;3747;48.628;9.058;2024-01-15T09:19:58;6.47;;;3.70;;
7410;SDS011;3747;48.628;9.058;2024-01-15T09:22:25;7.07;;;3.67;;
7410;SDS011;3747;48.628;9.058;2024-01-15T09:24:52;6.50;;;3.73;;
7410;SDS011;3747;48.628;9.058;2024-01-15T09:27:21;7.93;;;3.60;;
7410;SDS011;3747;48.628;9.058;2024-01-15T09:29:51;8.40;;;4.50;;
7410;SDS011;3747;48.628;9.058;2024-01-15T09:32:17;6.20;;;3.87;;
7410;SDS011;3747;48.628;9.058;2024-01-15T09:34:46;9.47;;;5.07;;
7410;SDS011;3747;48.628;9.058;2024-01-15T09:37:16;8.30;;;5.03;;
7410;SDS011;3747;48.628;9.058;2024-01-15T09:39:43;7.20;;;4.47;;
7410;SDS011;3747;48.628;9.058;2024-01-15T09:42:09;6.27;;;3.97;;
7410;SDS011;3747;48.628;9.058;2024-01-15T09:44:36;6.67;;;4.10;;
7410;SDS011;3747;48.628;9.058;2024-01-15T09:47:04;7.60;;;4.30;;
7410;SDS011;3747;48.628;9.058;2024-01-15T09:49:31;5.43;;;3.57;;
7410;SDS011;3747;48.628;9.058;2024-01-15T09:51:59;7.77;;;4.53;;
7410;SDS011;3747;48.628;9.058;2024-01-15T09:54:28;5.37;;;3.53;;
7410;SDS011;3747;48.628;9.058;2024-01-15T09:56:54;6.93;;;4.03;;
7410;SDS011;3747;48.628;9.058;2024-01-15T09:59:22;5.93;;;4.20;;
7410;SDS011;3747;48.628;9.058;2024-01-15T10:01:50;9.03;;;4.47;;
7410;SDS011;3747;48.628;9.058;2024-01-15T10:04:18;5.47;;;4.00;;
7410;SDS011;3747;48.628;9.058;2024-01-15T10:06:45;7.23;;;3.27;;
7410;SDS011;3747;48.628;9.058;2024-01-15T10:09:14;8.30;;;5.80;;
7410;SDS011;3747;48.628;9.058;2024-01-15T10:11:41;4.67;;;3.30;;
7410;SDS011;3747;48.628;9.058;2024-01-15T10:14:08;6.97;;;3.50;;
7410;SDS011;3747;48.628;9.058;2024-01-15T10:16:37;6.60;;;3.33;;
7410;SDS011;3747;48.628;9.058;2024-01-15T10:19:04;8.03;;;5.17;;
7410;SDS011;3747;48.628;9.058;2024-01-15T10:21:31;6.13;;;3.73;;
7410;SDS011;3747;48.628;9.058;2024-01-15T10:23:59;7.40;;;2.83;;
7410;SDS011;3747;48.628;9.058;2024-01-15T10:26:29;6.70;;;3.67;;
7410;SDS011;3747;48.628;9.058;2024-01-15T10:28:56;5.63;;;3.30;;
7410;SDS011;3747;48.628;9.058;2024-01-15T10:31:25;4.23;;;3.20;;
7410;SDS011;3747;48.628;9.058;2024-01-15T10:33:52;7.10;;;3.97;;
7410;SDS011;3747;48.628;9.058;2024-01-15T10:36:18;5.63;;;4.17;;
7410;SDS011;3747;48.628;9.058;2024-01-15T10:38:46;7.37;;;3.70;;
7410;SDS011;3747;48.628;9.058;2024-01-15T10:41:13;5.57;;;3.30;;
7410;SDS011;3747;48.628;9.058;2024-01-15T10:43:42;4.23;;;3.50;;
7410;SDS011;3747;48.628;9.058;2024-01-15T10:46:10;3.40;;;2.47;;
7410;SDS011;3747;48.628;9.058;2024-01-15T10:48:37;6.47;;;3.10;;
7410;SDS011;3747;48.628;9.058;2024-01-15T10:51:04;7.50;;;3.50;;
7410;SDS011;3747;48.628;9.058;2024-01-15T10:53:35;8.10;;;3.70;;
7410;SDS011;3747;48.628;9.058;2024-01-15T10:56:05;5.97;;;3.00;;
7410;SDS011;3747;48.628;9.058;2024-01-15T10:58:33;5.47;;;3.37;;
7410;SDS011;3747;48.628;9.058;2024-01-15T11:01:01;5.77;;;3.60;;
7410;SDS011;3747;48.628;9.058;2024-01-15T11:03:29;5.13;;;3.57;;
7410;SDS011;3747;48.628;9.058;2024-01-15T11:05:56;3.93;;;2.97;;
7410;SDS011;3747;48.628;9.058;2024-01-15T11:08:24;7.20;;;3.90;;
7410;SDS011;3747;48.628;9.058;2024-01-15T11:10:51;5.57;;;2.93;;
7410;SDS011;3747;48.628;9.058;2024-01-15T11:13:20;4.73;;;3.10;;
7410;SDS011;3747;48.628;9.058;2024-01-15T11:15:57;5.43;;;3.67;;
7410;SDS011;3747;48.628;9.058;2024-01-15T11:18:27;6.97;;;4.20;;
7410;SDS011;3747;48.628;9.058;2024-01-15T11:23:48;8.43;;;4.23;;
7410;SDS011;3747;48.628;9.058;2024-01-15T11:26:36;4.30;;;3.57;;
7410;SDS011;3747;48.628;9.058;2024-01-15T11:29:04;5.87;;;3.30;;
7410;SDS011;3747;48.628;9.058;2024-01-15T11:37:18;7.43;;;3.97;;
7410;SDS011;3747;48.628;9.058;2024-01-15T11:39:44;4.33;;;3.23;;
7410;SDS011;3747;48.628;9.058;2024-01-15T11:42:12;6.53;;;4.03;;
7410;SDS011;3747;48.628;9.058;2024-01-15T11:44:40;5.83;;;4.50;;
7410;SDS011;3747;48.628;9.058;2024-01-15T11:47:08;4.23;;;3.60;;
7410;SDS011;3747;48.628;9.058;2024-01-15T11:49:52;6.07;;;3.50;;
7410;SDS011;3747;48.628;9.058;2024-01-15T11:52:29;9.37;;;3.90;;
7410;SDS011;3747;48.628;9.058;2024-01-15T11:55:00;6.57;;;4.20;;
7410;SDS011;3747;48.628;9.058;2024-01-15T11:57:34;6.53;;;3.97;;
7410;SDS011;3747;48.628;9.058;2024-01-15T12:00:12;6.47;;;3.43;;
7410;SDS011;3747;48.628;9.058;2024-01-15T12:02:40;7.17;;;4.30;;
7410;SDS011;3747;48.628;9.058;2024-01-15T12:05:08;9.27;;;4.70;;
7410;SDS011;3747;48.628;9.058;2024-01-15T12:07:37;8.33;;;4.70;;
7410;SDS011;3747;48.628;9.058;2024-01-15T12:10:07;6.43;;;3.93;;
7410;SDS011;3747;48.628;9.058;2024-01-15T12:12:37;8.13;;;5.00;;
7410;SDS011;3747;48.628;9.058;2024-01-15T12:15:13;10.77;;;4.60;;
7410;SDS011;3747;48.628;9.058;2024-01-15T12:17:40;7.20;;;4.97;;
7410;SDS011;3747;48.628;9.058;2024-01-15T12:22:40;8.90;;;5.30;;
7410;SDS011;3747;48.628;9.058;2024-01-15T12:25:07;9.73;;;4.10;;
7410;SDS011;3747;48.628;9.058;2024-01-15T12:27:34;7.40;;;4.50;;
7410;SDS011;3747;48.628;9.058;2024-01-15T12:30:01;8.63;;;5.10;;
7410;SDS011;3747;48.628;9.058;2024-01-15T12:32:28;9.17;;;5.97;;
7410;SDS011;3747;48.628;9.058;2024-01-15T12:35:13;6.30;;;4.40;;
7410;SDS011;3747;48.628;9.058;2024-01-15T12:40:36;14.63;;;8.47;;
7410;SDS011;3747;48.628;9.058;2024-01-15T12:43:03;8.47;;;4.10;;
7410;SDS011;3747;48.628;9.058;2024-01-15T12:45:31;6.63;;;4.70;;
7410;SDS011;3747;48.628;9.058;2024-01-15T12:48:00;8.67;;;5.33;;
7410;SDS011;3747;48.628;9.058;2024-01-15T12:50:37;7.77;;;5.13;;
7410;SDS011;3747;48.628;9.058;2024-01-15T12:53:04;9.63;;;5.30;;
7410;SDS011;3747;48.628;9.058;2024-01-15T12:55:31;9.97;;;5.97;;
7410;SDS011;3747;48.628;9.058;2024-01-15T12:57:59;9.47;;;5.17;;
7410;SDS011;3747;48.628;9.058;2024-01-15T13:00:26;8.37;;;5.43;;
7410;SDS011;3747;48.628;9.058;2024-01-15T13:02:52;7.60;;;4.53;;
7410;SDS011;3747;48.628;9.058;2024-01-15T13:05:19;9.77;;;6.40;;
7410;SDS011;3747;48.628;9.058;2024-01-15T13:07:47;9.87;;;4.80;;
7410;SDS011;3747;48.628;9.058;2024-01-15T13:10:14;8.27;;;5.40;;
7410;SDS011;3747;48.628;9.058;2024-01-15T13:12:41;6.43;;;4.87;;
7410;SDS011;3747;48.628;9.058;2024-01-15T13:15:08;8.37;;;5.20;;
7410;SDS011;3747;48.628;9.058;2024-01-15T13:17:36;8.30;;;4.53;;
7410;SDS011;3747;48.628;9.058;2024-01-15T13:20:03;8.07;;;4.77;;
7410;SDS011;3747;48.628;9.058;2024-01-15T13:22:31;9.73;;;5.70;;
7410;SDS011;3747;48.628;9.058;2024-01-15T13:24:59;6.97;;;5.40;;
7410;SDS011;3747;48.628;9.058;2024-01-15T13:27:26;6.83;;;4.90;;
7410;SDS011;3747;48.628;9.058;2024-01-15T13:29:53;6.33;;;4.57;;
7410;SDS011;3747;48.628;9.058;2024-01-15T13:32:25;9.53;;;5.80;;
7410;SDS011;3747;48.628;9.058;2024-01-15T13:34:52;6.87;;;4.50;;
7410;SDS011;3747;48.628;9.058;2024-01-15T13:37:18;8.63;;;4.63;;
7410;SDS011;3747;48.628;9.058;2024-01-15T13:39:45;5.30;;;3.83;;
7410;SDS011;3747;48.628;9.058;2024-01-15T13:42:14;7.27;;;4.63;;
7410;SDS011;3747;48.628;9.058;2024-01-15T13:44:40;5.67;;;4.63;;
7410;SDS011;3747;48.628;9.058;2024-01-15T13:47:07;11.17;;;5.70;;
7410;SDS011;3747;48.628;9.058;2024-01-15T13:49:34;7.00;;;5.40;;
7410;SDS011;3747;48.628;9.058;2024-01-15T13:52:01;10.63;;;5.40;;
7410;SDS011;3747;48.628;9.058;2024-01-15T13:54:29;10.53;;;5.93;;
7410;SDS011;3747;48.628;9.058;2024-01-15T13:56:56;9.50;;;7.10;;
7410;SDS011;3747;48.628;9.058;2024-01-15T13:59:25;9.93;;;6.97;;
7410;SDS011;3747;48.628;9.058;2024-01-15T14:01:52;13.07;;;8.43;;
7410;SDS011;3747;48.628;9.058;2024-01-15T14:04:18;12.97;;;6.87;;
7410;SDS011;3747;48.628;9.058;2024-01-15T14:06:46;8.63;;;4.80;;
7410;SDS011;3747;48.628;9.058;2024-01-15T14:09:13;7.03;;;5.13;;
7410;SDS011;3747;48.628;9.058;2024-01-15T14:11:39;7.83;;;4.87;;
7410;SDS011;3747;48.628;9.058;2024-01-15T14:14:08;6.60;;;4.93;;
7410;SDS011;3747;48.628;9.058;2024-01-15T14:16:37;7.57;;;5.60;;
7410;SDS011;3747;48.628;9.058;2024-01-15T14:19:04;7.97;;;4.67;;
7410;SDS011;3747;48.628;9.058;2024-01-15T14:21:36;9.33;;;5.53;;
7410;SDS011;3747;48.628;9.058;2024-01-15T14:24:03;9.13;;;5.57;;
7410;SDS011;3747;48.628;9.058;2024-01-15T14:26:30;7.57;;;5.00;;
7410;SDS011;3747;48.628;9.058;2024-01-15T14:28:57;7.57;;;4.73;;
7410;SDS011;3747;48.628;9.058;2024-01-15T14:31:38;9.37;;;5.63;;
7410;SDS011;3747;48.628;9.058;2024-01-15T14:34:04;8.97;;;4.90;;
7410;SDS011;3747;48.628;9.058;2024-01-15T14:36:32;8.00;;;4.23;;
7410;SDS011;3747;48.628;9.058;2024-01-15T14:38:59;8.13;;;5.13;;
7410;SDS011;3747;48.628;9.058;2024-01-15T14:41:26;7.50;;;4.97;;
7410;SDS011;3747;48.628;9.058;2024-01-15T14:43:53;6.57;;;4.80;;
7410;SDS011;3747;48.628;9.058;2024-01-15T14:46:19;7.00;;;4.13;;
7410;SDS011;3747;48.628;9.058;2024-01-15T14:48:48;5.57;;;3.70;;
7410;SDS011;3747;48.628;9.058;2024-01-15T14:51:15;4.67;;;3.53;;
7410;SDS011;3747;48.628;9.058;2024-01-15T14:53:41;5.70;;;3.57;;
7410;SDS011;3747;48.628;9.058;2024-01-15T14:56:09;5.60;;;3.50;;
7410;SDS011;3747;48.628;9.058;2024-01-15T14:58:36;4.93;;;3.37;;
7410;SDS011;3747;48.628;9.058;2024-01-15T15:01:03;6.23;;;4.50;;
7410;SDS011;3747;48.628;9.058;2024-01-15T15:03:30;5.87;;;3.87;;
7410;SDS011;3747;48.628;9.058;2024-01-15T15:05:59;4.63;;;2.93;;
7410;SDS011;3747;48.628;9.058;2024-01-15T15:08:36;4.70;;;3.23;;
7410;SDS011;3747;48.628;9.058;2024-01-15T15:11:03;3.47;;;2.93;;
7410;SDS011;3747;48.628;9.058;2024-01-15T15:13:30;3.10;;;2.80;;
7410;SDS011;3747;48.628;9.058;2024-01-15T15:15:57;3.03;;;2.73;;
7410;SDS011;3747;48.628;9.058;2024-01-15T15:18:23;3.90;;;3.07;;
7410;SDS011;3747;48.628;9.058;2024-01-15T15:20:51;2.93;;;2.20;;
7410;SDS011;3747;48.628;9.058;2024-01-15T15:23:19;2.83;;;2.53;;
7410;SDS011;3747;48.628;9.058;2024-01-15T15:25:55;3.77;;;2.50;;